»·PEaware :: BEE185 KEGE-KDEN

BEE185 :: KEGE-KDEN

FLIGHT INFORMATION

Flight Status: Arrived
Operator:
Flybe
More flights by this operator :: More flights under this callsign
Pilot: Andrew Northall (12823)
Aircraft: BEECH AIRCRAFT BEECH AIRLINER
(B190)
More flights by this aircraft type
Origin: KEGE Eagle Co Regl
United States
Destination: KDEN Denver Intl
United States
More flights between these airports :: More routes between these airports
Route: +GYPSM5 RLG TOMSN TOMSN6
File this flight plan on PilotEdge
Remarks:
Altitude:
(Current/Filed)
23,000ft
Speed:
(Current/Filed)
220kts
Departed: 10-Jan-17 09:25 AM
Arrived: 10-Jan-17 10:03 AM
Distance/Time
Traveled:
105nm/0:37
Distance/Time
To Go:
Arrived

Flight Plot

Page will automatically refresh every two minutes.

Flight plan parsing failed; only flown route is shown


Map Options




Map Legend


Flown Route
Filed Route
Departure Airport
Arrival Airport
Navaid (VOR, NDB)
Fix

Horizontal Profiles

Position Reports

Time Latitude Longitude Heading Altitude Ground
Speed
10-Jan-17 09:01 39.640409 -106.916144 169 6499ft 0kts
10-Jan-17 09:02 39.640409 -106.916144 169 6499ft 0kts
10-Jan-17 09:03 39.640409 -106.916144 169 6499ft 0kts
10-Jan-17 09:04 39.640409 -106.916144 169 6499ft 0kts
10-Jan-17 09:05 39.640409 -106.916144 169 6499ft 0kts
10-Jan-17 09:06 39.640409 -106.916144 169 6499ft 0kts
10-Jan-17 09:07 39.640409 -106.916144 169 6499ft 0kts
10-Jan-17 09:08 39.640409 -106.916144 169 6499ft 0kts
10-Jan-17 09:09 39.640405 -106.916143 169 6499ft 0kts
10-Jan-17 09:10 39.640405 -106.916143 169 6499ft 0kts
10-Jan-17 09:11 39.640405 -106.916143 169 6499ft 0kts
10-Jan-17 09:12 39.640404 -106.916143 169 6499ft 0kts
10-Jan-17 09:13 39.640403 -106.916143 169 6499ft 0kts
10-Jan-17 09:14 39.640403 -106.916143 169 6499ft 0kts
10-Jan-17 09:15 39.640403 -106.916143 169 6499ft 0kts
10-Jan-17 09:16 39.640403 -106.916143 169 6499ft 0kts
10-Jan-17 09:17 39.640403 -106.916143 169 6499ft 0kts
10-Jan-17 09:18 39.640566 -106.916181 170 6498ft 1kts
10-Jan-17 09:19 39.640725 -106.916271 81 6497ft 1kts
10-Jan-17 09:20 39.641501 -106.914376 353 6501ft 12kts
10-Jan-17 09:21 39.642510 -106.909407 81 6519ft 34kts
10-Jan-17 09:22 39.643527 -106.903776 350 6527ft 0kts
10-Jan-17 09:23 39.643527 -106.903776 350 6527ft 0kts
10-Jan-17 09:24 39.644024 -106.904496 267 6525ft 0kts
10-Jan-17 09:25 39.640928 -106.929294 253 6838ft 150kts
10-Jan-17 09:26 39.601309 -106.972943 223 8743ft 213kts
10-Jan-17 09:27 39.615772 -107.019689 340 11669ft 170kts
10-Jan-17 09:28 39.661237 -107.040686 336 13797ft 183kts
10-Jan-17 09:29 39.708031 -107.066326 332 15781ft 184kts
10-Jan-17 09:30 39.758222 -107.087116 14 17216ft 224kts
10-Jan-17 09:31 39.792612 -107.015120 64 18745ft 245kts
10-Jan-17 09:32 39.821959 -106.935261 65 19871ft 259kts
10-Jan-17 09:33 39.852222 -106.852944 64 20828ft 269kts
10-Jan-17 09:34 39.883752 -106.767498 65 21823ft 274kts
10-Jan-17 09:35 39.913847 -106.685660 66 22645ft 279kts
10-Jan-17 09:36 39.951299 -106.583268 66 22938ft 307kts
10-Jan-17 09:37 39.988780 -106.480626 66 23040ft 318kts
10-Jan-17 09:38 39.996174 -106.376648 106 23888ft 284kts
10-Jan-17 09:39 39.986809 -106.280570 108 24662ft 274kts
10-Jan-17 09:40 39.985375 -106.181575 57 24914ft 302kts
10-Jan-17 09:41 40.034634 -106.089241 57 24924ft 319kts
10-Jan-17 09:42 40.083317 -105.991598 57 24927ft 328kts
10-Jan-17 09:43 40.132622 -105.892372 58 24842ft 332kts
10-Jan-17 09:44 40.183433 -105.789480 57 23307ft 342kts
10-Jan-17 09:45 40.234339 -105.686434 56 20824ft 340kts
10-Jan-17 09:46 40.283808 -105.586066 56 18669ft 311kts
10-Jan-17 09:47 40.328802 -105.494122 54 16982ft 289kts
10-Jan-17 09:48 40.329793 -105.408982 140 16968ft 244kts
10-Jan-17 09:49 40.279277 -105.341983 145 16958ft 277kts
10-Jan-17 09:50 40.232437 -105.282990 145 16950ft 288kts
10-Jan-17 09:51 40.172837 -105.185766 135 14825ft 281kts
10-Jan-17 09:52 40.135451 -105.121950 135 13069ft 256kts
10-Jan-17 09:53 40.084929 -105.037388 134 12003ft 239kts
10-Jan-17 09:54 40.045243 -104.979423 134 9961ft 198kts
10-Jan-17 09:55 40.005463 -104.926637 134 7992ft 211kts
10-Jan-17 09:56 39.994286 -104.868862 88 7205ft 214kts
10-Jan-17 09:57 39.993294 -104.790802 116 7130ft 221kts
10-Jan-17 09:58 39.971711 -104.702115 107 6542ft 198kts
10-Jan-17 09:59 39.950687 -104.659593 175 5672ft 126kts
10-Jan-17 10:00 39.918635 -104.660042 177 5900ft 125kts
10-Jan-17 10:01 39.883413 -104.659675 183 5740ft 124kts
10-Jan-17 10:02 39.854730 -104.660141 183 5330ft 114kts
10-Jan-17 10:03 39.841275 -104.661020 212 5322ft 24kts

Navigation Log

Ident Type Via Name
Flight plan parsing failed, navigation log unavailable